Terminal Aerodrome Forecast
Issued by NWS

Home | Current Version | Previous Version | Text Only | Print | Product List | Glossary On
Versions: 1 2 3 4 5 6 7 8 9 10 11 12 13 14 15 16 17
000
FTUS43 KAPX 192323
TAFMBL
TAF
KMBL 192323Z 2000/2024 19010G19KT P6SM BKN200 WS010/24040KT
     FM200400 23012G22KT P6SM BKN200 WS010/24040KT
     FM200900 25008KT P6SM BKN140=

USA.gov is the U.S. government's official web portal to all federal, state and local government web resources and services.